San Bernard — WDF9089 — position and weather

sailwx.info

Track history (hours):
 
Tides and Currents Weather Stations Pressure Air Temp Water Temp Dewpoint Dewpoint Depression Visibility Wind Speed Wind Dir Waves Ship Positions

San Bernard

Owner: Higman Barge Lines, Inc, Orange, TX. More information available from US FCC via Universal Licensing System and Coast Guard Vessel Documentation Center.

Last reported at 2017-Sep-19 14:52 UTC. Time now 2017-Sep-20 23:48 UTC.
Position N 29°34' W 090°23'.

Length 24 m; draft 3 m.

Type: Towing. MMSI: 367501660.

Date/timePositionNaut miles runAvg speedWind from/ knotsBaromVisibWave heightAir tempDewpointWater temp
2017-Sep-19 14:52N 29°34' W 090°23'1 3.4
2017-Sep-19 14:30N 29°33' W 090°25'3 5.4
2017-Sep-19 14:00N 29°33' W 090°28'3 5.3
2017-Sep-19 13:30N 29°34' W 090°31'3 5.2
2017-Sep-19 13:00N 29°34' W 090°34'2 4.0
2017-Sep-19 12:30N 29°35' W 090°36'2 4.0
2017-Sep-19 12:00N 29°35' W 090°38'2 4.4
2017-Sep-19 11:30N 29°36' W 090°40'2 3.5
2017-Sep-19 11:00N 29°37' W 090°42'1 2.3
2017-Sep-19 10:30N 29°36' W 090°43'2 3.8
2017-Sep-19 10:00N 29°34' W 090°43'2 3.8
2017-Sep-19 09:30N 29°33' W 090°45'0 0.3
2017-Sep-19 09:00N 29°33' W 090°45'0 0.0
2017-Sep-19 08:31N 29°33' W 090°45'2 4.2
2017-Sep-19 08:01N 29°32' W 090°48'3 6.0
2017-Sep-19 07:30N 29°32' W 090°51'6 5.7
2017-Sep-19 06:24N 29°35' W 090°58'56 3.9
2017-Sep-18 15:58N 29°50' W 091°60'3 5.8
2017-Sep-18 15:30N 29°49' W 092°03'3 5.7
2017-Sep-18 15:01N 29°48' W 092°06'3 5.6
2017-Sep-18 14:31N 29°47' W 092°09'2 4.3
2017-Sep-18 14:00N 29°47' W 092°11'1 3.0
2017-Sep-18 13:30N 29°47' W 092°13'2 3.4
2017-Sep-18 13:00N 29°48' W 092°14'3 4.9
2017-Sep-18 12:27N 29°49' W 092°17'3 4.3
2017-Sep-18 11:47N 29°51' W 092°20'38 3.3
2017-Sep-18 00:23N 29°56' W 093°03'2 4.0
2017-Sep-18 00:00N 29°56' W 093°05'2 4.4
2017-Sep-17 23:30N 29°56' W 093°07'2 4.6
2017-Sep-17 23:00N 29°56' W 093°10'2 4.9
2017-Sep-17 22:30N 29°58' W 093°12'2 4.7
2017-Sep-17 22:00N 29°60' W 093°13'2 4.0
2017-Sep-17 21:31N 30°02' W 093°14'2 3.7
2017-Sep-17 21:01N 30°03' W 093°16'2 3.8
2017-Sep-17 20:30N 30°05' W 093°17'2 3.1
2017-Sep-17 20:01N 30°06' W 093°18'0 0.3
2017-Sep-17 19:30N 30°06' W 093°18'0 0.0
2017-Sep-17 19:01N 30°06' W 093°18'0 0.0
2017-Sep-17 18:30N 30°06' W 093°18'0 0.0
2017-Sep-17 18:00N 30°06' W 093°18'1 1.6
2017-Sep-17 17:30N 30°06' W 093°19'2 3.7
2017-Sep-17 17:01N 30°08' W 093°20'2 4.9
2017-Sep-17 16:31N 30°10' W 093°19'2 4.9
2017-Sep-17 16:01N 30°12' W 093°17'2 4.4
2017-Sep-17 15:30N 30°13' W 093°16'0 0.9
2017-Sep-17 15:00N 30°14' W 093°15'0 0.1
2017-Sep-17 14:31N 30°14' W 093°15'0 0.0
2017-Sep-17 14:00N 30°14' W 093°15'0 0.0
2017-Sep-17 13:30N 30°14' W 093°15'0 0.0
2017-Sep-17 13:00N 30°14' W 093°15'0 0.0
2017-Sep-17 12:31N 30°14' W 093°15'0 0.0
2017-Sep-17 12:00N 30°14' W 093°15'0 0.0
2017-Sep-17 11:31N 30°14' W 093°15'0 0.0
2017-Sep-17 11:00N 30°14' W 093°15'0 0.0
2017-Sep-17 10:30N 30°14' W 093°15'0 0.0
2017-Sep-17 10:00N 30°14' W 093°15'0 0.0
2017-Sep-17 09:31N 30°14' W 093°15'0 0.0
2017-Sep-17 09:00N 30°14' W 093°15'0 0.0
2017-Sep-17 08:30N 30°14' W 093°15'0 0.0
2017-Sep-17 08:00N 30°14' W 093°15'0 0.0
2017-Sep-17 07:30N 30°14' W 093°15'0 0.0
2017-Sep-17 07:00N 30°14' W 093°15'0 0.0
2017-Sep-17 06:30N 30°14' W 093°15'0 0.0
2017-Sep-17 06:00N 30°14' W 093°15'0 0.0
2017-Sep-17 05:30N 30°14' W 093°15'0 0.0
2017-Sep-17 04:55N 30°14' W 093°15'0 0.0
2017-Sep-17 04:30N 30°14' W 093°15'0 0.0
2017-Sep-17 04:01N 30°14' W 093°15'0 0.0
2017-Sep-17 03:30N 30°14' W 093°15'0 0.0
2017-Sep-17 03:00N 30°14' W 093°15'0 0.0
2017-Sep-17 02:30N 30°14' W 093°15'0 0.0
2017-Sep-17 02:01N 30°14' W 093°15'0 0.0
2017-Sep-17 01:30N 30°14' W 093°15'0 0.0
2017-Sep-17 01:00N 30°14' W 093°15'0 0.0
2017-Sep-17 00:30N 30°14' W 093°15'0 0.0
2017-Sep-17 00:01N 30°14' W 093°15'0 0.0
2017-Sep-16 23:30N 30°14' W 093°15'0 0.0
2017-Sep-16 23:01N 30°14' W 093°15'0 0.0
2017-Sep-16 22:31N 30°14' W 093°15'0 0.0
2017-Sep-16 22:01N 30°14' W 093°15'0 0.0
2017-Sep-16 21:30N 30°14' W 093°15'0 0.0
2017-Sep-16 21:00N 30°14' W 093°15'0 0.0
2017-Sep-16 20:31N 30°14' W 093°15'0 0.0
2017-Sep-16 20:00N 30°14' W 093°15'0 0.0
2017-Sep-16 19:31N 30°14' W 093°15'0 0.0
2017-Sep-16 19:01N 30°14' W 093°15'0 0.0
2017-Sep-16 18:30N 30°14' W 093°15'0 0.0
2017-Sep-16 18:00N 30°14' W 093°15'0 0.0
2017-Sep-16 17:30N 30°14' W 093°15'0 0.0
2017-Sep-16 17:00N 30°14' W 093°15'0 0.0
2017-Sep-16 16:30N 30°14' W 093°15'0 0.0
2017-Sep-16 16:01N 30°14' W 093°15'0 0.0
2017-Sep-16 15:30N 30°14' W 093°15'0 0.0
2017-Sep-16 15:00N 30°14' W 093°15'0 0.0
2017-Sep-16 14:31N 30°14' W 093°15'0 0.1
2017-Sep-16 14:00N 30°14' W 093°15'1 1.2
2017-Sep-16 13:30N 30°13' W 093°16'0 0.2
2017-Sep-16 13:00N 30°14' W 093°16'0 0.0
2017-Sep-16 12:30N 30°14' W 093°16'0 0.0
2017-Sep-16 12:00N 30°14' W 093°16'0 0.0
2017-Sep-16 11:30N 30°14' W 093°16'0 0.0
2017-Sep-16 11:00N 30°14' W 093°16'0 0.0
2017-Sep-16 10:30N 30°14' W 093°16'0 0.0
2017-Sep-16 10:00N 30°14' W 093°16'0 0.0
2017-Sep-16 09:30N 30°14' W 093°16'0 0.0
2017-Sep-16 09:00N 30°14' W 093°16'0 0.0
2017-Sep-16 08:30N 30°14' W 093°16'0 0.1
2017-Sep-16 08:01N 30°13' W 093°16'0 0.1
2017-Sep-16 07:30N 30°13' W 093°16'0 0.4
2017-Sep-16 07:00N 30°13' W 093°16'1 2.2
2017-Sep-16 06:31N 30°12' W 093°16'3 6.3
2017-Sep-16 06:01N 30°10' W 093°19'3 5.9
2017-Sep-16 05:31N 30°07' W 093°20'3 5.2
2017-Sep-16 05:00N 30°05' W 093°20'2 4.6
2017-Sep-16 04:30N 30°04' W 093°22'3 6.5
2017-Sep-16 04:00N 30°04' W 093°26'3 6.3
2017-Sep-16 03:30N 30°04' W 093°30'3 6.3
2017-Sep-16 03:00N 30°04' W 093°34'8 0.3
2017-Sep-14 22:47N 30°03' W 093°43'2 6.1
2017-Sep-14 22:30N 30°04' W 093°41'3 6.3
2017-Sep-14 22:01N 30°04' W 093°38'2 4.9
2017-Sep-14 21:30N 30°04' W 093°35'3 5.5
2017-Sep-14 21:00N 30°04' W 093°32'3 5.7
2017-Sep-14 20:30N 30°04' W 093°29'3 5.6
2017-Sep-14 20:00N 30°04' W 093°25'3 5.4
2017-Sep-14 19:31N 30°04' W 093°22'2 4.5
2017-Sep-14 19:00N 30°05' W 093°20'2 4.0
2017-Sep-14 18:30N 30°06' W 093°18'2 3.4
2017-Sep-14 18:01N 30°04' W 093°16'1 2.4
2017-Sep-14 17:30N 30°03' W 093°16'3 5.5
2017-Sep-14 17:00N 30°01' W 093°14'3 6.2
2017-Sep-14 16:30N 29°59' W 093°12'3 6.5
2017-Sep-14 16:01N 29°56' W 093°09'4 6.5
2017-Sep-14 15:24N 29°56' W 093°05'38 4.3
2017-Sep-14 06:41N 29°51' W 092°22'1 4.7
2017-Sep-14 06:30N 29°51' W 092°21'2 5.0
2017-Sep-14 06:00N 29°50' W 092°18'2 4.9
2017-Sep-14 05:30N 29°49' W 092°16'3 5.1
2017-Sep-14 05:00N 29°48' W 092°13'3 5.1
2017-Sep-14 04:30N 29°47' W 092°11'2 4.8
2017-Sep-14 04:01N 29°47' W 092°08'2 3.6
2017-Sep-14 03:30N 29°48' W 092°06'3 5.8
2017-Sep-14 02:59N 29°49' W 092°03'57 4.5
2017-Sep-13 14:16N 29°36' W 090°58'1 5.8
2017-Sep-13 14:00N 29°35' W 090°58'3 5.9
2017-Sep-13 13:30N 29°33' W 090°55'3 5.7
2017-Sep-13 13:00N 29°32' W 090°52'3 6.3
2017-Sep-13 12:30N 29°32' W 090°48'3 5.3
2017-Sep-13 12:00N 29°33' W 090°45'2 4.3
2017-Sep-13 11:30N 29°34' W 090°43'2 4.8
2017-Sep-13 11:00N 29°37' W 090°42'1 1.2
2017-Sep-13 10:30N 29°37' W 090°42'1 1.2
2017-Sep-13 10:00N 29°37' W 090°41'0 0.9
2017-Sep-13 09:30N 29°36' W 090°41'2 3.2
2017-Sep-13 09:00N 29°36' W 090°39'3 5.5
2017-Sep-13 08:30N 29°35' W 090°36'3 5.3
2017-Sep-13 08:00N 29°34' W 090°33'2 4.5
2017-Sep-13 07:29N 29°34' W 090°31'  
Track history (hours):
 
Tides and Currents Weather Stations Pressure Air Temp Water Temp Dewpoint Dewpoint Depression Visibility Wind Speed Wind Dir Waves Ship Positions

San Bernard

Owner: Higman Barge Lines, Inc, Orange, TX. More information available from US FCC via Universal Licensing System and Coast Guard Vessel Documentation Center.

Last reported at 2017-Sep-19 14:52 UTC. Time now 2017-Sep-20 23:48 UTC.
Position N 29°34' W 090°23'.

Length 24 m; draft 3 m.

Type: Towing. MMSI: 367501660.

Date/timePositionNaut miles runAvg speedWind from/ knotsBaromVisibWave heightAir tempDewpointWater temp
2017-Sep-19 14:52N 29°34' W 090°23'1 3.4
2017-Sep-19 14:30N 29°33' W 090°25'3 5.4
2017-Sep-19 14:00N 29°33' W 090°28'3 5.3
2017-Sep-19 13:30N 29°34' W 090°31'3 5.2
2017-Sep-19 13:00N 29°34' W 090°34'2 4.0
2017-Sep-19 12:30N 29°35' W 090°36'2 4.0
2017-Sep-19 12:00N 29°35' W 090°38'2 4.4
2017-Sep-19 11:30N 29°36' W 090°40'2 3.5
2017-Sep-19 11:00N 29°37' W 090°42'1 2.3
2017-Sep-19 10:30N 29°36' W 090°43'2 3.8
2017-Sep-19 10:00N 29°34' W 090°43'2 3.8
2017-Sep-19 09:30N 29°33' W 090°45'0 0.3
2017-Sep-19 09:00N 29°33' W 090°45'0 0.0
2017-Sep-19 08:31N 29°33' W 090°45'2 4.2
2017-Sep-19 08:01N 29°32' W 090°48'3 6.0
2017-Sep-19 07:30N 29°32' W 090°51'6 5.7
2017-Sep-19 06:24N 29°35' W 090°58'56 3.9
2017-Sep-18 15:58N 29°50' W 091°60'3 5.8
2017-Sep-18 15:30N 29°49' W 092°03'3 5.7
2017-Sep-18 15:01N 29°48' W 092°06'3 5.6
2017-Sep-18 14:31N 29°47' W 092°09'2 4.3
2017-Sep-18 14:00N 29°47' W 092°11'1 3.0
2017-Sep-18 13:30N 29°47' W 092°13'2 3.4
2017-Sep-18 13:00N 29°48' W 092°14'3 4.9
2017-Sep-18 12:27N 29°49' W 092°17'3 4.3
2017-Sep-18 11:47N 29°51' W 092°20'38 3.3
2017-Sep-18 00:23N 29°56' W 093°03'2 4.0
2017-Sep-18 00:00N 29°56' W 093°05'2 4.4
2017-Sep-17 23:30N 29°56' W 093°07'2 4.6
2017-Sep-17 23:00N 29°56' W 093°10'2 4.9
2017-Sep-17 22:30N 29°58' W 093°12'2 4.7
2017-Sep-17 22:00N 29°60' W 093°13'2 4.0
2017-Sep-17 21:31N 30°02' W 093°14'2 3.7
2017-Sep-17 21:01N 30°03' W 093°16'2 3.8
2017-Sep-17 20:30N 30°05' W 093°17'2 3.1
2017-Sep-17 20:01N 30°06' W 093°18'0 0.3
2017-Sep-17 19:30N 30°06' W 093°18'0 0.0
2017-Sep-17 19:01N 30°06' W 093°18'0 0.0
2017-Sep-17 18:30N 30°06' W 093°18'0 0.0
2017-Sep-17 18:00N 30°06' W 093°18'1 1.6
2017-Sep-17 17:30N 30°06' W 093°19'2 3.7
2017-Sep-17 17:01N 30°08' W 093°20'2 4.9
2017-Sep-17 16:31N 30°10' W 093°19'2 4.9
2017-Sep-17 16:01N 30°12' W 093°17'2 4.4
2017-Sep-17 15:30N 30°13' W 093°16'0 0.9
2017-Sep-17 15:00N 30°14' W 093°15'0 0.1
2017-Sep-17 14:31N 30°14' W 093°15'0 0.0
2017-Sep-17 14:00N 30°14' W 093°15'0 0.0
2017-Sep-17 13:30N 30°14' W 093°15'0 0.0
2017-Sep-17 13:00N 30°14' W 093°15'0 0.0
2017-Sep-17 12:31N 30°14' W 093°15'0 0.0
2017-Sep-17 12:00N 30°14' W 093°15'0 0.0
2017-Sep-17 11:31N 30°14' W 093°15'0 0.0
2017-Sep-17 11:00N 30°14' W 093°15'0 0.0
2017-Sep-17 10:30N 30°14' W 093°15'0 0.0
2017-Sep-17 10:00N 30°14' W 093°15'0 0.0
2017-Sep-17 09:31N 30°14' W 093°15'0 0.0
2017-Sep-17 09:00N 30°14' W 093°15'0 0.0
2017-Sep-17 08:30N 30°14' W 093°15'0 0.0
2017-Sep-17 08:00N 30°14' W 093°15'0 0.0
2017-Sep-17 07:30N 30°14' W 093°15'0 0.0
2017-Sep-17 07:00N 30°14' W 093°15'0 0.0
2017-Sep-17 06:30N 30°14' W 093°15'0 0.0
2017-Sep-17 06:00N 30°14' W 093°15'0 0.0
2017-Sep-17 05:30N 30°14' W 093°15'0 0.0
2017-Sep-17 04:55N 30°14' W 093°15'0 0.0
2017-Sep-17 04:30N 30°14' W 093°15'0 0.0
2017-Sep-17 04:01N 30°14' W 093°15'0 0.0
2017-Sep-17 03:30N 30°14' W 093°15'0 0.0
2017-Sep-17 03:00N 30°14' W 093°15'0 0.0
2017-Sep-17 02:30N 30°14' W 093°15'0 0.0
2017-Sep-17 02:01N 30°14' W 093°15'0 0.0
2017-Sep-17 01:30N 30°14' W 093°15'0 0.0
2017-Sep-17 01:00N 30°14' W 093°15'0 0.0
2017-Sep-17 00:30N 30°14' W 093°15'0 0.0
2017-Sep-17 00:01N 30°14' W 093°15'0 0.0
2017-Sep-16 23:30N 30°14' W 093°15'0 0.0
2017-Sep-16 23:01N 30°14' W 093°15'0 0.0
2017-Sep-16 22:31N 30°14' W 093°15'0 0.0
2017-Sep-16 22:01N 30°14' W 093°15'0 0.0
2017-Sep-16 21:30N 30°14' W 093°15'0 0.0
2017-Sep-16 21:00N 30°14' W 093°15'0 0.0
2017-Sep-16 20:31N 30°14' W 093°15'0 0.0
2017-Sep-16 20:00N 30°14' W 093°15'0 0.0
2017-Sep-16 19:31N 30°14' W 093°15'0 0.0
2017-Sep-16 19:01N 30°14' W 093°15'0 0.0
2017-Sep-16 18:30N 30°14' W 093°15'0 0.0
2017-Sep-16 18:00N 30°14' W 093°15'0 0.0
2017-Sep-16 17:30N 30°14' W 093°15'0 0.0
2017-Sep-16 17:00N 30°14' W 093°15'0 0.0
2017-Sep-16 16:30N 30°14' W 093°15'0 0.0
2017-Sep-16 16:01N 30°14' W 093°15'0 0.0
2017-Sep-16 15:30N 30°14' W 093°15'0 0.0
2017-Sep-16 15:00N 30°14' W 093°15'0 0.0
2017-Sep-16 14:31N 30°14' W 093°15'0 0.1
2017-Sep-16 14:00N 30°14' W 093°15'1 1.2
2017-Sep-16 13:30N 30°13' W 093°16'0 0.2
2017-Sep-16 13:00N 30°14' W 093°16'0 0.0
2017-Sep-16 12:30N 30°14' W 093°16'0 0.0
2017-Sep-16 12:00N 30°14' W 093°16'0 0.0
2017-Sep-16 11:30N 30°14' W 093°16'0 0.0
2017-Sep-16 11:00N 30°14' W 093°16'0 0.0
2017-Sep-16 10:30N 30°14' W 093°16'0 0.0
2017-Sep-16 10:00N 30°14' W 093°16'0 0.0
2017-Sep-16 09:30N 30°14' W 093°16'0 0.0
2017-Sep-16 09:00N 30°14' W 093°16'0 0.0
2017-Sep-16 08:30N 30°14' W 093°16'0 0.1
2017-Sep-16 08:01N 30°13' W 093°16'0 0.1
2017-Sep-16 07:30N 30°13' W 093°16'0 0.4
2017-Sep-16 07:00N 30°13' W 093°16'1 2.2
2017-Sep-16 06:31N 30°12' W 093°16'3 6.3
2017-Sep-16 06:01N 30°10' W 093°19'3 5.9
2017-Sep-16 05:31N 30°07' W 093°20'3 5.2
2017-Sep-16 05:00N 30°05' W 093°20'2 4.6
2017-Sep-16 04:30N 30°04' W 093°22'3 6.5
2017-Sep-16 04:00N 30°04' W 093°26'3 6.3
2017-Sep-16 03:30N 30°04' W 093°30'3 6.3
2017-Sep-16 03:00N 30°04' W 093°34'8 0.3
2017-Sep-14 22:47N 30°03' W 093°43'2 6.1
2017-Sep-14 22:30N 30°04' W 093°41'3 6.3
2017-Sep-14 22:01N 30°04' W 093°38'2 4.9
2017-Sep-14 21:30N 30°04' W 093°35'3 5.5
2017-Sep-14 21:00N 30°04' W 093°32'3 5.7
2017-Sep-14 20:30N 30°04' W 093°29'3 5.6
2017-Sep-14 20:00N 30°04' W 093°25'3 5.4
2017-Sep-14 19:31N 30°04' W 093°22'2 4.5
2017-Sep-14 19:00N 30°05' W 093°20'2 4.0
2017-Sep-14 18:30N 30°06' W 093°18'2 3.4
2017-Sep-14 18:01N 30°04' W 093°16'1 2.4
2017-Sep-14 17:30N 30°03' W 093°16'3 5.5
2017-Sep-14 17:00N 30°01' W 093°14'3 6.2
2017-Sep-14 16:30N 29°59' W 093°12'3 6.5
2017-Sep-14 16:01N 29°56' W 093°09'4 6.5
2017-Sep-14 15:24N 29°56' W 093°05'38 4.3
2017-Sep-14 06:41N 29°51' W 092°22'1 4.7
2017-Sep-14 06:30N 29°51' W 092°21'2 5.0
2017-Sep-14 06:00N 29°50' W 092°18'2 4.9
2017-Sep-14 05:30N 29°49' W 092°16'3 5.1
2017-Sep-14 05:00N 29°48' W 092°13'3 5.1
2017-Sep-14 04:30N 29°47' W 092°11'2 4.8
2017-Sep-14 04:01N 29°47' W 092°08'2 3.6
2017-Sep-14 03:30N 29°48' W 092°06'3 5.8
2017-Sep-14 02:59N 29°49' W 092°03'57 4.5
2017-Sep-13 14:16N 29°36' W 090°58'1 5.8
2017-Sep-13 14:00N 29°35' W 090°58'3 5.9
2017-Sep-13 13:30N 29°33' W 090°55'3 5.7
2017-Sep-13 13:00N 29°32' W 090°52'3 6.3
2017-Sep-13 12:30N 29°32' W 090°48'3 5.3
2017-Sep-13 12:00N 29°33' W 090°45'2 4.3
2017-Sep-13 11:30N 29°34' W 090°43'2 4.8
2017-Sep-13 11:00N 29°37' W 090°42'1 1.2
2017-Sep-13 10:30N 29°37' W 090°42'1 1.2
2017-Sep-13 10:00N 29°37' W 090°41'0 0.9
2017-Sep-13 09:30N 29°36' W 090°41'2 3.2
2017-Sep-13 09:00N 29°36' W 090°39'3 5.5
2017-Sep-13 08:30N 29°35' W 090°36'3 5.3
2017-Sep-13 08:00N 29°34' W 090°33'2 4.5
2017-Sep-13 07:29N 29°34' W 090°31'  

Dump ship's entire track history